Time;durP1;ratioP1;P1;durP2;ratioP2;P2;SDS_P1;SDS_P2;PMS_P1;PMS_P2;Temp;Humidity;BMP_temperature;BMP_pressure;BME280_temperature;BME280_humidity;BME280_pressure;Samples;Min_cycle;Max_cycle;Signal;HPM_P1;HPM_P2
2021/09/15 04:31:15;;;;;;;11.10;7.62;;;;;;;10.23;97.61;98471.19;1827832;77;20914;-64
2021/09/15 04:33:41;;;;;;;10.82;7.30;;;;;;;10.28;97.54;98465.81;1827862;78;21351;-63
2021/09/15 04:36:08;;;;;;;9.90;6.80;;;;;;;10.35;97.47;98467.64;1827817;78;20864;-63
2021/09/15 04:38:37;;;;;;;12.85;6.83;;;;;;;10.45;97.50;98468.13;1827834;78;21370;-62
2021/09/15 04:41:05;;;;;;;11.95;6.47;;;;;;;10.59;97.67;98467.77;1827760;78;20988;-62
2021/09/15 04:43:34;;;;;;;10.93;6.25;;;;;;;10.72;97.58;98470.61;1791129;80;21002;-59
2021/09/15 04:46:01;;;;;;;7.95;6.20;;;;;;;10.88;97.60;98472.65;1791466;80;21900;-62
2021/09/15 04:48:29;;;;;;;12.28;7.12;;;;;;;11.04;97.51;98470.63;1791397;80;20915;-61
2021/09/15 04:50:56;;;;;;;10.50;6.40;;;;;;;11.18;97.39;98472.39;1787041;80;21489;-61
2021/09/15 04:53:23;;;;;;;15.50;7.25;;;;;;;11.32;97.30;98472.52;1779903;80;20872;-61
2021/09/15 04:55:50;;;;;;;14.35;7.30;;;;;;;11.46;96.97;98478.81;1778400;80;20900;-63
2021/09/15 04:58:17;;;;;;;21.15;8.38;;;;;;;11.54;96.58;98478.98;1776798;80;21127;-62
2021/09/15 05:00:46;;;;;;;13.10;7.58;;;;;;;11.62;96.18;98474.88;1776404;80;21098;-63
2021/09/15 05:03:15;;;;;;;14.00;7.72;;;;;;;11.70;95.74;98475.64;1776788;80;20984;-65
2021/09/15 05:05:42;;;;;;;9.95;6.72;;;;;;;11.75;95.32;98476.94;1777262;80;21042;-63
2021/09/15 05:08:12;;;;;;;11.68;6.85;;;;;;;11.81;95.04;98477.12;1776813;80;21506;-63
2021/09/15 05:10:39;;;;;;;12.68;6.83;;;;;;;11.88;94.72;98482.13;1760250;80;21493;-62
2021/09/15 05:13:06;;;;;;;18.90;8.23;;;;;;;11.95;94.52;98479.36;1774299;81;21507;-62
2021/09/15 05:15:34;;;;;;;14.18;7.55;;;;;;;12.05;94.31;98479.25;1774234;81;20897;-61
2021/09/15 05:18:03;;;;;;;21.00;7.72;;;;;;;12.18;94.20;98484.44;1774141;81;20945;-61
2021/09/15 05:20:32;;;;;;;14.80;7.95;;;;;;;12.32;94.06;98486.13;1774151;80;20957;-62
2021/09/15 05:22:59;;;;;;;21.35;7.40;;;;;;;12.46;93.89;98492.15;1774462;81;21717;-61
2021/09/15 05:25:28;;;;;;;24.90;8.15;;;;;;;12.64;94.02;98491.34;1774125;80;20948;-61
2021/09/15 05:27:57;;;;;;;18.92;7.67;;;;;;;12.85;94.07;98497.47;1776529;80;20936;-63
2021/09/15 05:30:26;;;;;;;24.25;8.30;;;;;;;13.07;93.95;98495.55;1774593;80;21482;-61
2021/09/15 05:32:58;;;;;;;9.78;7.37;;;;;;;13.29;93.81;98499.73;1774816;81;20928;-63
2021/09/15 05:35:27;;;;;;;9.08;6.30;;;;;;;13.51;93.31;98494.51;1774952;81;21499;-63
2021/09/15 05:37:56;;;;;;;15.63;5.90;;;;;;;13.71;93.00;98488.73;1774392;81;20884;-61
2021/09/15 05:40:23;;;;;;;8.35;5.85;;;;;;;13.91;92.30;98490.79;1774259;81;20921;-60
2021/09/15 05:42:50;;;;;;;9.00;5.65;;;;;;;14.08;91.72;98489.11;1774379;81;21419;-62
2021/09/15 05:45:19;;;;;;;9.78;5.33;;;;;;;14.23;90.96;98488.77;1774194;81;20991;-62
2021/09/15 05:47:52;;;;;;;8.90;5.78;;;;;;;14.42;90.31;98490.55;1774195;81;21062;-63
2021/09/15 05:50:18;;;;;;;10.00;5.17;;;;;;;14.57;89.47;98493.73;1773929;81;21414;-60
2021/09/15 05:52:47;;;;;;;10.23;5.30;;;;;;;14.72;88.58;98489.33;1774120;81;20944;-60
2021/09/15 05:55:15;;;;;;;8.35;4.60;;;;;;;14.84;87.76;98485.55;1774184;81;20905;-60
2021/09/15 05:57:43;;;;;;;10.10;4.78;;;;;;;14.97;87.06;98484.70;1773872;81;20885;-62
2021/09/15 06:00:12;;;;;;;7.85;4.87;;;;;;;15.11;86.36;98481.13;1773197;81;21071;-61
2021/09/15 06:02:42;;;;;;;10.82;4.05;;;;;;;15.25;85.55;98480.52;1774644;81;20908;-64
2021/09/15 06:05:15;;;;;;;13.48;4.35;;;;;;;15.36;84.65;98483.19;1757529;81;20893;-61
2021/09/15 06:07:43;;;;;;;5.65;3.27;;;;;;;15.48;83.93;98478.05;1773484;81;20954;-61
2021/09/15 06:10:10;;;;;;;9.78;3.37;;;;;;;15.57;82.93;98480.23;1774114;81;20889;-61
2021/09/15 06:12:39;;;;;;;6.05;2.90;;;;;;;15.65;82.51;98478.14;1770287;79;21656;-61
2021/09/15 06:15:09;;;;;;;4.83;3.47;;;;;;;15.73;81.68;98481.45;1767368;81;20960;-61
2021/09/15 06:17:38;;;;;;;3.60;2.50;;;;;;;15.81;81.03;98476.61;1774056;81;20987;-61
2021/09/15 06:20:10;;;;;;;3.45;2.30;;;;;;;15.91;80.29;98480.39;1774136;81;21001;-63
2021/09/15 06:22:44;;;;;;;5.58;2.95;;;;;;;16.02;79.67;98480.89;1743176;81;21011;-61
2021/09/15 06:25:16;;;;;;;5.20;2.62;;;;;;;16.09;78.88;98476.63;1770674;81;21139;-61
2021/09/15 06:27:44;;;;;;;2.80;2.08;;;;;;;16.16;78.03;98481.56;1772597;80;21522;-61
2021/09/15 06:30:14;;;;;;;3.95;2.17;;;;;;;16.23;77.32;98480.00;1773711;81;20904;-64
2021/09/15 06:32:40;;;;;;;5.97;2.30;;;;;;;16.31;76.80;98479.23;1743884;81;21409;-62
2021/09/15 06:35:11;;;;;;;3.15;2.10;;;;;;;16.38;76.12;98478.20;1773493;81;21019;-65
2021/09/15 06:37:39;;;;;;;3.60;2.10;;;;;;;16.47;75.65;98474.70;1773250;81;21100;-63
2021/09/15 06:40:08;;;;;;;5.15;2.20;;;;;;;16.54;74.58;98480.47;1773182;81;21471;-63
2021/09/15 06:42:35;;;;;;;4.25;2.33;;;;;;;16.58;74.29;98481.45;1772964;81;21052;-62
2021/09/15 06:45:05;;;;;;;3.40;2.25;;;;;;;16.63;74.10;98478.59;1773090;81;20998;-64
2021/09/15 06:47:42;;;;;;;4.05;2.30;;;;;;;16.68;74.01;98481.11;1774231;80;20936;-65
2021/09/15 06:50:12;;;;;;;5.92;2.20;;;;;;;16.72;73.73;98483.44;1773674;81;21113;-62
2021/09/15 06:52:41;;;;;;;4.10;2.00;;;;;;;16.78;73.59;98483.51;1774034;81;20885;-62
2021/09/15 06:55:10;;;;;;;3.37;2.15;;;;;;;16.84;73.46;98484.96;1773469;81;21506;-63
2021/09/15 06:57:37;;;;;;;3.00;2.05;;;;;;;16.89;73.34;98486.93;1774316;80;20979;-64
2021/09/15 07:00:08;;;;;;;2.55;2.00;;;;;;;16.96;72.59;98482.38;1744106;81;21574;-64
2021/09/15 07:02:37;;;;;;;3.42;1.98;;;;;;;17.02;72.31;98483.83;1774006;81;21123;-61
2021/09/15 07:05:05;;;;;;;3.27;1.90;;;;;;;17.08;71.69;98482.53;1774210;81;20996;-63
2021/09/15 07:07:34;;;;;;;3.25;1.77;;;;;;;17.10;71.63;98485.16;1774070;81;21395;-64
2021/09/15 07:10:01;;;;;;;3.72;1.37;;;;;;;17.17;71.41;98480.61;1774075;81;20928;-66
2021/09/15 07:12:28;;;;;;;2.62;1.42;;;;;;;17.25;71.23;98486.58;1774114;81;20964;-63
2021/09/15 07:14:55;;;;;;;1.30;1.20;;;;;;;17.33;70.63;98483.07;1774103;81;21231;-64
2021/09/15 07:17:24;;;;;;;5.60;1.15;;;;;;;17.40;70.57;98482.02;1774013;81;21375;-67
2021/09/15 07:19:51;;;;;;;3.72;1.50;;;;;;;17.52;69.44;98479.44;1774506;80;20984;-64
2021/09/15 07:22:20;;;;;;;3.12;1.47;;;;;;;17.63;68.85;98475.28;1774031;81;20964;-64
2021/09/15 07:24:47;;;;;;;3.42;1.30;;;;;;;17.76;68.22;98482.39;1774097;81;21143;-64
2021/09/15 07:27:14;;;;;;;3.22;1.52;;;;;;;17.84;67.23;98479.97;1774068;81;21776;-62
2021/09/15 07:29:41;;;;;;;2.15;1.40;;;;;;;17.93;67.51;98482.08;1774151;81;21499;-64
2021/09/15 07:32:08;;;;;;;3.22;2.00;;;;;;;18.00;67.47;98483.72;1774258;81;20972;-64
2021/09/15 07:34:35;;;;;;;5.40;2.37;;;;;;;18.09;66.89;98484.50;1774024;81;21168;-62
2021/09/15 07:37:03;;;;;;;8.40;2.35;;;;;;;18.15;65.90;98483.17;1774135;81;21460;-64
2021/09/15 07:39:31;;;;;;;4.22;2.47;;;;;;;18.21;65.08;98484.56;1743880;81;20924;-62
2021/09/15 07:42:01;;;;;;;6.75;3.90;;;;;;;18.27;65.11;98477.84;1769159;81;20948;-62
2021/09/15 07:44:28;;;;;;;5.87;3.98;;;;;;;18.33;64.54;98479.23;1756113;80;20915;-63
2021/09/15 07:46:55;;;;;;;8.95;4.20;;;;;;;18.34;64.40;98474.05;1806786;78;20947;-67
2021/09/15 07:49:23;;;;;;;9.55;5.60;;;;;;;18.35;64.35;98476.98;1801719;78;21450;-65
2021/09/15 07:51:51;;;;;;;9.05;5.37;;;;;;;18.38;64.96;98472.27;1801690;78;21094;-66
2021/09/15 07:54:38;;;;;;;8.75;4.50;;;;;;;18.43;65.45;98470.72;1753801;78;21199;-64
2021/09/15 07:57:07;;;;;;;7.87;4.28;;;;;;;18.54;65.75;98478.72;1777283;80;21562;-65
2021/09/15 07:59:34;;;;;;;6.42;3.22;;;;;;;18.64;64.91;98476.98;1743152;81;21727;-64
2021/09/15 08:02:02;;;;;;;4.30;2.98;;;;;;;18.72;64.58;98472.06;1748701;81;20979;-64
2021/09/15 08:04:28;;;;;;;5.55;2.90;;;;;;;18.81;64.87;98479.56;1725620;81;21179;-62
2021/09/15 08:06:55;;;;;;;3.95;2.60;;;;;;;18.92;64.70;98479.38;1733048;82;21097;-63
2021/09/15 08:09:22;;;;;;;3.22;2.30;;;;;;;18.99;64.70;98477.48;1741130;82;21041;-63
2021/09/15 08:11:49;;;;;;;3.95;2.40;;;;;;;19.04;64.26;98483.52;1755062;81;21306;-62
2021/09/15 08:14:19;;;;;;;4.10;2.15;;;;;;;19.08;64.53;98487.14;1755894;81;21225;-66
2021/09/15 08:16:46;;;;;;;6.28;2.67;;;;;;;19.17;64.00;98488.99;1756096;81;21503;-66
2021/09/15 08:19:14;;;;;;;7.45;2.98;;;;;;;19.24;63.97;98490.05;1755526;81;20937;-66
2021/09/15 08:21:41;;;;;;;4.17;2.90;;;;;;;19.34;63.53;98491.52;1755862;81;20984;-61
2021/09/15 08:24:09;;;;;;;4.45;3.00;;;;;;;19.41;63.07;98479.02;1756417;81;20981;-64
2021/09/15 08:26:35;;;;;;;6.15;3.20;;;;;;;19.50;63.17;98488.45;1756547;81;21144;-63
2021/09/15 08:29:03;;;;;;;5.87;2.42;;;;;;;19.60;62.84;98488.00;1757126;81;21373;-64
2021/09/15 08:31:31;;;;;;;4.10;2.37;;;;;;;19.68;62.91;98488.48;1757434;81;21028;-62
2021/09/15 08:33:58;;;;;;;4.67;2.35;;;;;;;19.74;62.76;98484.39;1757604;81;20917;-65
2021/09/15 08:36:25;;;;;;;3.30;1.90;;;;;;;19.83;62.31;98483.75;1757600;81;21136;-66
2021/09/15 08:38:54;;;;;;;2.67;1.80;;;;;;;19.89;61.91;98486.47;1756637;81;20986;-62
2021/09/15 08:41:21;;;;;;;2.95;2.08;;;;;;;19.96;61.28;98490.77;1751346;81;21026;-63
2021/09/15 08:43:51;;;;;;;3.90;1.90;;;;;;;20.02;61.60;98482.60;1753908;81;21019;-62
2021/09/15 08:46:20;;;;;;;3.98;2.20;;;;;;;20.10;60.97;98483.63;1746636;81;21576;-63
2021/09/15 08:48:49;;;;;;;3.92;1.87;;;;;;;20.15;60.54;98477.97;1741436;80;21171;-64
2021/09/15 08:51:22;;;;;;;6.22;1.87;;;;;;;20.22;60.41;98479.02;1767982;80;21035;-63
2021/09/15 08:53:47;;;;;;;7.25;1.92;;;;;;;20.26;60.32;98477.20;1779210;80;21132;-66
2021/09/15 08:56:17;;;;;;;3.72;1.70;;;;;;;20.21;59.80;98480.11;1741197;81;20928;-61
2021/09/15 08:58:46;;;;;;;3.00;1.70;;;;;;;20.06;59.94;98480.02;1726888;82;21042;-64
2021/09/15 09:01:25;;;;;;;4.90;1.62;;;;;;;19.92;60.45;98474.92;1712614;82;21011;-64
2021/09/15 09:03:55;;;;;;;1.62;1.32;;;;;;;19.91;60.56;98473.32;1754375;81;20986;-62
2021/09/15 09:06:31;;;;;;;5.25;1.70;;;;;;;19.98;60.08;98478.98;1723255;82;21205;-63
2021/09/15 09:08:58;;;;;;;;;;;;;;;20.07;59.98;98478.86;1735673;82;21095;-63
2021/09/15 09:11:29;;;;;;;2.90;1.60;;;;;;;20.17;60.12;98479.22;1738331;82;20191;-61
2021/09/15 09:14:02;;;;;;;5.17;2.58;;;;;;;20.28;58.99;98472.20;1727372;81;21532;-62
2021/09/15 09:16:42;;;;;;;3.50;2.62;;;;;;;20.36;58.02;98469.94;1733628;81;21070;-64
2021/09/15 09:19:15;;;;;;;3.60;2.15;;;;;;;20.41;57.68;98472.99;1741222;81;21091;-61
2021/09/15 09:21:51;;;;;;;3.15;1.90;;;;;;;20.38;57.68;98471.75;1754951;81;21030;-62
2021/09/15 09:24:23;;;;;;;4.92;1.80;;;;;;;20.33;57.39;98471.17;1724782;82;21485;-61
2021/09/15 09:27:01;;;;;;;2.42;1.90;;;;;;;20.28;57.81;98466.77;1755530;81;21555;-63
2021/09/15 09:29:35;;;;;;;5.95;2.30;;;;;;;20.31;57.83;98467.45;1737212;82;20940;-62
2021/09/15 09:32:10;;;;;;;6.60;2.50;;;;;;;20.36;57.84;98460.42;1737853;82;21268;-66
2021/09/15 09:34:43;;;;;;;5.00;2.40;;;;;;;20.45;58.59;98465.16;1737810;82;20952;-61
2021/09/15 09:37:16;;;;;;;6.42;3.02;;;;;;;20.61;58.86;98464.45;1737642;82;21051;-62
2021/09/15 09:39:55;;;;;;;6.58;3.22;;;;;;;20.74;57.83;98459.19;1737282;82;20901;-62
2021/09/15 09:42:28;;;;;;;6.00;2.17;;;;;;;20.88;57.88;98459.59;1733004;82;21089;-63
2021/09/15 09:45:08;;;;;;;2.80;2.08;;;;;;;20.95;57.21;98460.59;1756559;81;21071;-62
2021/09/15 09:47:36;;;;;;;4.10;2.20;;;;;;;20.96;56.48;98453.99;1721046;82;21119;-63
2021/09/15 09:50:08;;;;;;;5.28;2.45;;;;;;;20.93;57.05;98455.27;1718239;82;21543;-62
2021/09/15 09:53:01;;;;;;;5.53;2.20;;;;;;;20.96;56.31;98456.72;1751934;81;20986;-62
2021/09/15 09:55:35;;;;;;;3.60;1.95;;;;;;;20.99;54.68;98451.15;1746473;81;21098;-62
2021/09/15 09:58:03;;;;;;;2.73;1.80;;;;;;;20.93;54.23;98455.27;1741336;82;21270;-60
2021/09/15 10:00:32;;;;;;;2.22;1.52;;;;;;;20.86;53.96;98448.27;1734874;82;21499;-62
2021/09/15 10:02:59;;;;;;;4.65;1.85;;;;;;;20.84;53.67;98449.19;1721888;82;21130;-62
2021/09/15 10:05:26;;;;;;;2.50;2.00;;;;;;;20.80;53.57;98452.35;1718452;82;20923;-62
2021/09/15 10:07:54;;;;;;;3.60;2.20;;;;;;;20.71;53.85;98447.06;1737787;82;21162;-62
2021/09/15 10:10:22;;;;;;;3.37;2.37;;;;;;;20.65;54.46;98444.38;1717970;83;21201;-61
2021/09/15 10:12:55;;;;;;;3.60;1.95;;;;;;;20.61;54.60;98449.49;1717301;83;21021;-61
2021/09/15 10:15:17;;;;;;;4.58;1.72;;;;;;;20.58;54.21;98447.45;1727358;82;21095;-63
2021/09/15 10:17:51;;;;;;;2.70;1.90;;;;;;;20.53;53.77;98438.16;1714623;83;21122;-61
2021/09/15 10:20:25;;;;;;;4.42;1.98;;;;;;;20.49;53.65;98438.04;1728311;82;21263;-62
2021/09/15 10:22:52;;;;;;;3.40;1.57;;;;;;;20.48;53.99;98437.03;1745021;82;21103;-62
2021/09/15 10:25:21;;;;;;;2.83;1.70;;;;;;;20.49;53.98;98439.40;1731340;82;21251;-62
2021/09/15 10:28:06;;;;;;;3.98;1.75;;;;;;;20.55;53.60;98439.41;1723087;82;20915;-61
2021/09/15 10:30:49;;;;;;;3.92;1.60;;;;;;;20.65;54.19;98434.84;1746236;82;20936;-63
2021/09/15 10:33:41;;;;;;;2.58;1.22;;;;;;;20.74;52.81;98434.12;1746130;82;20857;-63
2021/09/15 10:36:22;;;;;;;3.62;1.40;;;;;;;20.66;51.48;98436.41;1746168;82;21234;-62
2021/09/15 10:38:56;;;;;;;2.55;1.50;;;;;;;20.48;52.05;98434.31;1744001;82;20920;-62
2021/09/15 10:41:39;;;;;;;2.67;1.30;;;;;;;20.51;52.31;98426.27;1746169;82;25765;-59
2021/09/15 10:44:09;;;;;;;2.50;1.40;;;;;;;20.62;51.38;98426.56;1746125;82;20928;-62
2021/09/15 10:46:36;;;;;;;3.40;1.40;;;;;;;20.71;53.00;98422.56;1746079;82;20888;-60
2021/09/15 10:49:28;;;;;;;2.92;1.50;;;;;;;20.79;51.58;98423.56;1745946;82;21243;-60
2021/09/15 10:52:16;;;;;;;5.55;1.65;;;;;;;20.92;51.79;98425.09;1745891;82;20920;-61
2021/09/15 10:54:54;;;;;;;3.40;1.70;;;;;;;21.06;51.81;98422.78;1745442;82;20924;-60
2021/09/15 10:57:32;;;;;;;3.52;1.70;;;;;;;21.21;51.55;98412.50;1749409;82;21032;-62
2021/09/15 11:00:21;;;;;;;2.20;1.60;;;;;;;21.33;50.54;98415.72;1750367;82;20919;-63
2021/09/15 11:02:49;;;;;;;2.15;1.22;;;;;;;21.36;49.39;98413.07;1750473;82;21114;-60
2021/09/15 11:05:41;;;;;;;1.85;1.05;;;;;;;21.36;48.26;98415.03;1749686;82;20951;-60
2021/09/15 11:08:16;;;;;;;1.17;0.95;;;;;;;21.38;46.93;98412.17;1750801;82;20920;-60
2021/09/15 11:10:45;;;;;;;2.72;0.90;;;;;;;21.45;46.76;98412.36;1756538;81;20970;-61
2021/09/15 11:13:37;;;;;;;1.47;1.00;;;;;;;21.47;46.04;98407.91;1753736;81;21995;-60
2021/09/15 11:16:33;;;;;;;2.60;1.30;;;;;;;21.46;45.49;98399.50;1729167;82;21882;-64
2021/09/15 11:19:14;;;;;;;5.12;1.30;;;;;;;21.39;46.78;98396.03;1716944;82;21578;-62
2021/09/15 11:21:55;;;;;;;2.27;1.30;;;;;;;21.43;47.19;98395.54;1764981;81;20980;-61
2021/09/15 11:24:30;;;;;;;2.85;1.40;;;;;;;21.47;47.23;98389.62;1763765;81;21574;-61
2021/09/15 11:27:05;;;;;;;1.63;1.20;;;;;;;21.42;47.72;98378.98;1763085;81;21111;-60
2021/09/15 11:29:48;;;;;;;4.00;1.05;;;;;;;21.37;48.02;98381.17;1765287;81;21127;-61
2021/09/15 11:32:15;;;;;;;1.42;1.15;;;;;;;21.26;46.59;98375.47;1765634;81;20991;-61
2021/09/15 11:34:48;;;;;;;1.30;1.00;;;;;;;21.18;46.56;98370.17;1765601;81;21073;-65
2021/09/15 11:37:24;;;;;;;2.60;1.10;;;;;;;21.15;46.68;98368.94;1765941;81;20993;-59
2021/09/15 11:39:57;;;;;;;0.90;0.90;;;;;;;21.15;46.37;98362.72;1766939;81;20984;-61
2021/09/15 11:42:35;;;;;;;2.60;1.25;;;;;;;21.32;46.47;98356.34;1766562;81;21109;-63
2021/09/15 11:45:16;;;;;;;3.10;1.95;;;;;;;21.48;46.56;98353.64;1766610;81;21060;-63
2021/09/15 11:47:49;;;;;;;5.95;1.60;;;;;;;21.70;46.56;98348.33;1766550;81;20897;-62
2021/09/15 11:50:26;;;;;;;4.33;1.70;;;;;;;21.91;47.78;98344.53;1766549;81;20901;-59
2021/09/15 11:55:30;;;;;;;1.98;1.30;;;;;;;21.98;47.16;98333.78;1765852;81;20844;-62
2021/09/15 11:58:04;;;;;;;5.22;1.67;;;;;;;21.88;47.62;98337.08;1734252;81;21041;-62
2021/09/15 12:00:32;;;;;;;4.40;1.32;;;;;;;21.74;48.38;98334.20;1734579;82;20986;-64
2021/09/15 12:03:05;;;;;;;2.40;1.00;;;;;;;21.71;48.38;98325.39;1715719;82;21135;-63
2021/09/15 12:05:32;;;;;;;3.40;1.30;;;;;;;21.81;48.67;98326.19;1707041;82;21086;-62
2021/09/15 12:07:59;;;;;;;1.70;1.40;;;;;;;21.85;49.62;98323.58;1716380;82;21798;-62
2021/09/15 12:10:28;;;;;;;1.72;1.32;;;;;;;21.83;49.07;98327.98;1730790;82;21034;-63
2021/09/15 12:12:58;;;;;;;1.80;1.35;;;;;;;21.71;49.28;98324.03;1704302;82;20986;-64
2021/09/15 12:15:27;;;;;;;1.62;1.40;;;;;;;21.60;49.39;98325.70;1731005;82;21238;-61
2021/09/15 12:17:59;;;;;;;1.87;1.40;;;;;;;21.73;48.66;98321.73;1732325;82;21027;-62
2021/09/15 12:20:49;;;;;;;1.52;1.30;;;;;;;22.06;48.37;98314.50;1732663;82;21119;-60
2021/09/15 12:23:18;;;;;;;2.83;1.57;;;;;;;22.53;46.77;98313.50;1732416;82;20932;-62
2021/09/15 12:25:54;;;;;;;1.62;1.35;;;;;;;23.01;46.04;98307.42;1733230;82;20984;-62
2021/09/15 12:28:23;;;;;;;5.35;1.37;;;;;;;23.35;44.53;98300.20;1697732;84;20978;-62
2021/09/15 12:30:50;;;;;;;2.37;1.50;;;;;;;23.65;43.61;98305.16;1697517;84;21042;-62
2021/09/15 12:33:26;;;;;;;2.42;1.35;;;;;;;23.77;43.74;98304.94;1698262;84;21103;-61
2021/09/15 12:36:17;;;;;;;2.60;1.30;;;;;;;23.93;42.84;98303.42;1697918;84;21481;-61
2021/09/15 12:38:57;;;;;;;1.60;1.50;;;;;;;24.15;42.17;98301.98;1707960;83;20912;-62
2021/09/15 12:41:26;;;;;;;1.87;1.35;;;;;;;24.37;41.42;98305.78;1745197;82;20932;-62
2021/09/15 12:44:11;;;;;;;3.52;1.55;;;;;;;24.53;41.46;98295.41;1727065;83;20908;-62
2021/09/15 12:46:47;;;;;;;2.25;1.40;;;;;;;24.76;40.69;98295.25;1745350;82;21046;-62
2021/09/15 12:49:33;;;;;;;3.58;1.37;;;;;;;24.94;38.90;98288.05;1745221;82;20896;-62
2021/09/15 12:52:09;;;;;;;3.90;1.40;;;;;;;25.10;39.35;98283.09;1727291;83;21522;-62
2021/09/15 12:54:36;;;;;;;5.92;1.72;;;;;;;25.20;39.39;98287.09;1745322;82;20900;-62
2021/09/15 12:57:27;;;;;;;2.92;1.40;;;;;;;25.33;39.28;98290.53;1728554;82;20943;-62
2021/09/15 12:59:55;;;;;;;2.52;1.17;;;;;;;25.23;39.09;98283.58;1758974;81;21195;-62
2021/09/15 13:02:29;;;;;;;5.17;1.52;;;;;;;25.03;39.66;98283.04;1757936;81;21089;-62
2021/09/15 13:04:58;;;;;;;2.40;1.53;;;;;;;24.67;39.31;98282.44;1759354;81;21486;-62
2021/09/15 13:53:22;;;;;;;5.78;2.27;;;;;;;24.26;40.44;98249.53;1871522;76;22710;-61
2021/09/15 13:55:50;;;;;;;3.40;2.00;;;;;;;23.98;40.18;98251.89;1827859;78;20954;-61
2021/09/15 13:58:19;;;;;;;6.35;2.27;;;;;;;23.69;40.96;98251.33;1827961;78;20817;-60
2021/09/15 14:00:46;;;;;;;6.47;2.37;;;;;;;23.44;42.35;98251.52;1827819;78;20900;-61
2021/09/15 14:03:14;;;;;;;3.65;2.22;;;;;;;23.32;42.08;98247.63;1828077;78;21441;-61
2021/09/15 14:05:41;;;;;;;4.33;2.45;;;;;;;23.28;42.50;98239.94;1827816;78;20849;-62
2021/09/15 14:08:09;;;;;;;3.15;2.08;;;;;;;23.36;42.55;98240.30;1828086;78;20975;-62
2021/09/15 14:10:36;;;;;;;2.90;2.12;;;;;;;23.45;41.93;98236.72;1828150;78;21091;-61
2021/09/15 14:13:03;;;;;;;4.80;2.15;;;;;;;23.48;42.77;98238.12;1827759;78;20841;-62
2021/09/15 14:15:30;;;;;;;2.95;2.12;;;;;;;23.37;43.42;98236.39;1828157;78;20868;-62
2021/09/15 14:17:56;;;;;;;3.52;1.92;;;;;;;23.36;44.65;98241.09;1827816;78;20886;-63
2021/09/15 14:20:24;;;;;;;4.87;2.45;;;;;;;23.45;44.29;98240.24;1827836;78;21512;-63
2021/09/15 14:22:53;;;;;;;4.55;2.35;;;;;;;23.51;43.13;98240.70;1827858;78;21167;-60
2021/09/15 14:25:22;;;;;;;3.55;2.10;;;;;;;23.44;43.31;98241.95;1827809;78;21339;-63
2021/09/15 14:27:50;;;;;;;6.50;2.37;;;;;;;23.39;44.69;98242.30;1827814;78;20912;-60
2021/09/15 14:30:19;;;;;;;5.03;2.40;;;;;;;23.28;44.25;98242.09;1828194;78;20864;-62
2021/09/15 14:32:47;;;;;;;4.08;2.10;;;;;;;23.19;44.72;98242.93;1828037;78;21480;-61
2021/09/15 14:35:15;;;;;;;3.98;2.10;;;;;;;23.20;45.70;98243.73;1827726;78;21106;-62
2021/09/15 14:37:41;;;;;;;4.00;2.20;;;;;;;23.28;46.71;98251.66;1827778;78;20864;-60
2021/09/15 14:40:11;;;;;;;6.17;2.42;;;;;;;23.41;46.16;98239.38;1827822;78;21011;-61
2021/09/15 14:42:39;;;;;;;4.75;2.45;;;;;;;23.43;46.43;98243.13;1827982;78;20967;-61
2021/09/15 14:45:07;;;;;;;3.65;2.05;;;;;;;23.34;45.51;98243.94;1828024;78;21414;-61
2021/09/15 14:47:34;;;;;;;11.75;2.45;;;;;;;23.19;46.29;98237.47;1827794;78;21513;-61
2021/09/15 14:50:02;;;;;;;5.87;2.70;;;;;;;22.99;47.36;98230.48;1827741;78;20864;-61
2021/09/15 14:52:31;;;;;;;3.37;2.55;;;;;;;22.79;47.46;98237.19;1821325;77;20896;-61
2021/09/15 14:54:57;;;;;;;4.30;2.22;;;;;;;22.53;47.72;98233.77;1816614;79;20948;-61
2021/09/15 14:57:24;;;;;;;6.65;2.50;;;;;;;22.30;49.72;98234.31;1816661;78;20972;-61
2021/09/15 14:59:51;;;;;;;5.83;2.60;;;;;;;22.02;51.03;98232.39;1816527;78;21099;-61
2021/09/15 15:02:17;;;;;;;5.15;2.75;;;;;;;21.75;52.50;98240.37;1816464;79;20916;-61
2021/09/15 15:04:44;;;;;;;5.58;2.83;;;;;;;21.59;53.22;98235.55;1816121;79;21541;-61
2021/09/15 15:07:11;;;;;;;9.33;7.47;;;;;;;21.65;53.26;98242.86;1815954;79;20919;-61
2021/09/15 15:09:41;;;;;;;7.17;5.97;;;;;;;21.55;52.91;98244.20;1815882;78;20868;-60
2021/09/15 15:12:10;;;;;;;7.12;4.83;;;;;;;21.47;53.20;98241.12;1815826;78;20896;-59
2021/09/15 15:14:38;;;;;;;5.12;4.53;;;;;;;21.51;54.00;98235.17;1815903;79;20959;-61
2021/09/15 15:17:06;;;;;;;6.28;4.58;;;;;;;21.66;53.89;98241.16;1815943;78;21439;-61
2021/09/15 15:19:33;;;;;;;5.53;3.77;;;;;;;21.77;53.68;98229.91;1815939;79;20873;-61
2021/09/15 15:22:02;;;;;;;10.00;5.25;;;;;;;21.76;53.86;98236.48;1815976;78;20911;-61
2021/09/15 15:24:29;;;;;;;7.92;5.30;;;;;;;21.62;54.15;98236.19;1815845;78;21098;-60
2021/09/15 15:26:56;;;;;;;97.60;12.15;;;;;;;21.42;54.67;98239.23;1815863;79;20955;-60
2021/09/15 15:29:24;;;;;;;30.62;7.67;;;;;;;21.19;55.53;98236.38;1815943;78;20928;-61
2021/09/15 15:31:55;;;;;;;9.50;5.42;;;;;;;20.97;56.53;98237.77;1815890;78;20857;-61
2021/09/15 15:34:22;;;;;;;6.92;4.83;;;;;;;20.77;57.30;98236.67;1816020;78;20904;-60
2021/09/15 15:36:49;;;;;;;7.37;4.65;;;;;;;20.57;57.50;98236.33;1815904;79;21099;-61
2021/09/15 15:39:16;;;;;;;7.50;5.37;;;;;;;20.43;57.79;98239.47;1815851;79;20951;-61
2021/09/15 15:41:44;;;;;;;10.88;6.37;;;;;;;20.25;58.24;98241.72;1815912;79;20841;-61
2021/09/15 15:44:14;;;;;;;11.15;7.03;;;;;;;20.09;59.08;98235.39;1815823;78;20927;-61
2021/09/15 15:46:41;;;;;;;8.93;6.67;;;;;;;19.93;59.74;98239.98;1816216;79;20881;-61
2021/09/15 15:49:09;;;;;;;11.93;8.45;;;;;;;19.76;60.49;98238.34;1816149;79;21392;-61
2021/09/15 15:51:37;;;;;;;63.20;37.17;;;;;;;19.63;61.07;98238.16;1816061;78;20986;-61
2021/09/15 15:54:06;;;;;;;61.68;42.08;;;;;;;19.60;61.71;98236.67;1821965;77;21017;-62
2021/09/15 15:56:41;;;;;;;28.95;17.90;;;;;;;19.61;61.87;98235.55;1821938;78;20983;-61
2021/09/15 15:59:10;;;;;;;26.93;17.32;;;;;;;19.58;62.26;98237.59;1821904;78;20919;-62
2021/09/15 16:01:39;;;;;;;27.93;20.48;;;;;;;19.47;62.58;98233.77;1822060;78;21720;-61
2021/09/15 16:04:07;;;;;;;19.82;12.47;;;;;;;19.35;63.09;98235.91;1821984;77;20924;-63
2021/09/15 16:06:34;;;;;;;13.08;8.75;;;;;;;19.21;63.47;98240.09;1804861;77;20895;-63
2021/09/15 16:09:01;;;;;;;12.70;7.78;;;;;;;19.09;63.78;98236.81;1779913;80;21124;-62
2021/09/15 16:11:27;;;;;;;134.90;93.17;;;;;;;18.97;64.33;98233.54;1780087;80;20939;-64
2021/09/15 16:13:54;;;;;;;96.30;60.20;;;;;;;18.87;65.05;98225.83;1780295;80;21457;-63
2021/09/15 16:16:23;;;;;;;103.85;63.23;;;;;;;18.83;65.73;98223.58;1779981;80;20928;-64
2021/09/15 16:18:55;;;;;;;104.17;76.10;;;;;;;18.83;66.26;98224.14;1780031;80;20948;-64
2021/09/15 16:21:22;;;;;;;79.00;58.60;;;;;;;18.79;66.47;98221.32;1780030;80;21485;-64
2021/09/15 16:23:49;;;;;;;91.78;66.60;;;;;;;18.74;66.69;98220.73;1780339;80;20895;-64
2021/09/15 16:26:17;;;;;;;78.57;55.10;;;;;;;18.66;66.56;98219.70;1780221;80;21171;-64
2021/09/15 16:28:45;;;;;;;144.47;93.92;;;;;;;18.58;66.76;98216.55;1780191;80;20923;-64
2021/09/15 16:31:11;;;;;;;90.45;61.02;;;;;;;18.51;67.12;98220.93;1780301;80;20912;-64
2021/09/15 16:33:38;;;;;;;173.75;110.15;;;;;;;18.35;67.84;98219.38;1780309;80;20911;-64
2021/09/15 16:36:05;;;;;;;197.82;121.57;;;;;;;18.12;68.41;98214.11;1780452;80;20976;-63
2021/09/15 16:38:31;;;;;;;213.22;139.95;;;;;;;18.00;68.59;98223.55;1780334;80;21116;-61
2021/09/15 16:40:58;;;;;;;143.52;98.35;;;;;;;17.91;68.78;98218.21;1780372;80;20907;-64
2021/09/15 16:43:26;;;;;;;150.40;105.05;;;;;;;17.85;69.21;98217.39;1780447;80;20951;-64
